04:30
Airports
History
Links
Donate
Help keep this website running!
PayPal
Bitcoin
This page is community maintained. The information is intended for PC simulator navigation or reference.
Always use approved charts for navigation.
LIDE
REGGIO EMILIA
REGGIO EMILIA (LIDE)
Reggio Emilia, Emilia-Romagna, Italy (42122)
(U)
Lat/Lng:44° 41' 52.99" N / 10° 39' 52.97" E
44.698053 / 10.664713
Elevation:152'ft / 46mMSL
ID / ICAO:LIDE
Runways:1
Longest:11-29
Asphalt 1,207m / 3,960ft
Nearby Weather04:20 GMT 2017-09-22
Nearby weather at LIPE, BOLOGNA located 32.7 nautical miles from LIDE
Altimeter: 30.09
Visibility: 6.2 statute miles
Wind: 4 knots (from 230°)
Temp: 11°c / 52°f
Humidity: 81.7%

METAR: LIPE 220420Z 23004KT 200V260 CAVOK 11/08 Q1019

(Powered by phpweather)
Nearby VORs <50NM
Nearby NDBs
Runway 11 / 29
Dimensions:1207 x 29.9m 3960' x 98'ft
Surface:Asphalt
Runway 11 [A]Runway 29 [B]
Heading:109°TH 289°TH
Lat:
Lng:
44° 41' 59.58"N
10° 39' 27.02"E
44° 41' 46.4"N
10° 40' 18.91"E
User Notes and Comments
44° 41' 52.99" N / 10° 39' 52.97" E
Distance To
Airport ID:
Nearby Airports
(R) Modena Marzaglia 8.7 NM
LIPM ESE 120°
(U) Carpi Budrione 13.9 NM
LIDU NE 47°
(C) PARMA 20.1 NM
LIMP WNW 296°
4 Pavullo 27.3 NM
LIDP SSE 162°
4 Mantova 30.9 NM
LIDM N 11°
(C) BOLOGNA 32.7 NM
LIPE ( WX ) ESE 110°
4 Legnago 42.9 NM
LIDL NE 45°
VFR Chart
Flight Planning at SkyVector.com